sensor_id;sensor_type;location;lat;lon;timestamp;pressure;altitude;pressure_sealevel;temperature;humidity
20656;BME280;10487;53.320;8.672;2023-02-04T00:01:40;102624.66;;;3.71;60.60
20656;BME280;10487;53.320;8.672;2023-02-04T00:04:41;102630.91;;;3.67;60.53
20656;BME280;10487;53.320;8.672;2023-02-04T00:07:43;102628.34;;;3.63;60.58
20656;BME280;10487;53.320;8.672;2023-02-04T00:10:44;102641.56;;;3.60;60.70
20656;BME280;10487;53.320;8.672;2023-02-04T00:13:50;102638.97;;;3.58;60.78
20656;BME280;10487;53.320;8.672;2023-02-04T00:16:52;102635.47;;;3.56;60.70
20656;BME280;10487;53.320;8.672;2023-02-04T00:19:53;102640.81;;;3.53;60.76
20656;BME280;10487;53.320;8.672;2023-02-04T00:22:55;102651.41;;;3.50;60.62
20656;BME280;10487;53.320;8.672;2023-02-04T00:25:57;102668.16;;;3.46;60.77
20656;BME280;10487;53.320;8.672;2023-02-04T00:28:59;102670.88;;;3.41;60.72
20656;BME280;10487;53.320;8.672;2023-02-04T00:32:00;102676.22;;;3.38;60.51
20656;BME280;10487;53.320;8.672;2023-02-04T00:35:02;102678.00;;;3.35;60.77
20656;BME280;10487;53.320;8.672;2023-02-04T00:38:05;102683.31;;;3.32;60.56
20656;BME280;10487;53.320;8.672;2023-02-04T00:41:07;102693.06;;;3.25;60.68
20656;BME280;10487;53.320;8.672;2023-02-04T00:44:09;102688.72;;;3.20;60.64
20656;BME280;10487;53.320;8.672;2023-02-04T00:47:11;102693.22;;;3.13;60.76
20656;BME280;10487;53.320;8.672;2023-02-04T00:50:13;102712.59;;;3.09;60.72
20656;BME280;10487;53.320;8.672;2023-02-04T00:53:14;102721.44;;;3.05;60.43
20656;BME280;10487;53.320;8.672;2023-02-04T00:56:16;102719.75;;;3.00;60.74
20656;BME280;10487;53.320;8.672;2023-02-04T00:59:17;102723.31;;;2.96;60.78
20656;BME280;10487;53.320;8.672;2023-02-04T01:02:19;102731.25;;;2.93;60.86
20656;BME280;10487;53.320;8.672;2023-02-04T01:05:22;102746.22;;;2.89;60.58
20656;BME280;10487;53.320;8.672;2023-02-04T01:08:24;102748.91;;;2.84;60.63
20656;BME280;10487;53.320;8.672;2023-02-04T01:11:26;102752.47;;;2.80;60.76
20656;BME280;10487;53.320;8.672;2023-02-04T01:14:28;102749.00;;;2.75;60.90
20656;BME280;10487;53.320;8.672;2023-02-04T01:17:30;102766.63;;;2.70;60.68
20656;BME280;10487;53.320;8.672;2023-02-04T01:20:32;102765.81;;;2.65;60.73
20656;BME280;10487;53.320;8.672;2023-02-04T01:23:33;102780.78;;;2.60;60.55
20656;BME280;10487;53.320;8.672;2023-02-04T01:26:35;102791.38;;;2.54;60.63
20656;BME280;10487;53.320;8.672;2023-02-04T01:29:36;102803.69;;;2.49;60.47
20656;BME280;10487;53.320;8.672;2023-02-04T01:32:38;102806.41;;;2.43;60.57
20656;BME280;10487;53.320;8.672;2023-02-04T01:35:40;102815.22;;;2.39;60.65
20656;BME280;10487;53.320;8.672;2023-02-04T01:38:41;102819.63;;;2.36;60.68
20656;BME280;10487;53.320;8.672;2023-02-04T01:41:43;102827.56;;;2.33;60.42
20656;BME280;10487;53.320;8.672;2023-02-04T01:44:45;102836.38;;;2.29;60.65
20656;BME280;10487;53.320;8.672;2023-02-04T01:47:47;102824.09;;;2.26;60.80
20656;BME280;10487;53.320;8.672;2023-02-04T01:50:51;102837.28;;;2.23;60.74
20656;BME280;10487;53.320;8.672;2023-02-04T01:53:53;102837.31;;;2.17;60.41
20656;BME280;10487;53.320;8.672;2023-02-04T01:56:55;102843.47;;;2.13;60.51
20656;BME280;10487;53.320;8.672;2023-02-04T01:59:57;102846.13;;;2.10;60.69
20656;BME280;10487;53.320;8.672;2023-02-04T02:02:59;102854.06;;;2.07;60.60
20656;BME280;10487;53.320;8.672;2023-02-04T02:06:01;102861.97;;;2.04;60.49
20656;BME280;10487;53.320;8.672;2023-02-04T02:09:03;102882.16;;;2.00;60.59
20656;BME280;10487;53.320;8.672;2023-02-04T02:12:05;102893.59;;;1.98;60.77
20656;BME280;10487;53.320;8.672;2023-02-04T02:15:08;102898.03;;;1.94;60.58
20656;BME280;10487;53.320;8.672;2023-02-04T02:18:10;102910.31;;;1.91;60.71
20656;BME280;10487;53.320;8.672;2023-02-04T02:21:13;102913.81;;;1.88;60.44
20656;BME280;10487;53.320;8.672;2023-02-04T02:24:30;102921.72;;;1.85;60.80
20656;BME280;10487;53.320;8.672;2023-02-04T02:27:32;102931.41;;;1.82;60.65
20656;BME280;10487;53.320;8.672;2023-02-04T02:30:34;102939.34;;;1.77;60.87
20656;BME280;10487;53.320;8.672;2023-02-04T02:33:36;102954.25;;;1.74;60.70
20656;BME280;10487;53.320;8.672;2023-02-04T02:36:38;102961.28;;;1.72;60.75
20656;BME280;10487;53.320;8.672;2023-02-04T02:39:41;102954.25;;;1.68;60.45
20656;BME280;10487;53.320;8.672;2023-02-04T02:42:47;102954.28;;;1.65;60.69
20656;BME280;10487;53.320;8.672;2023-02-04T02:45:51;102957.78;;;1.62;60.58
20656;BME280;10487;53.320;8.672;2023-02-04T02:48:53;102964.81;;;1.59;60.42
20656;BME280;10487;53.320;8.672;2023-02-04T02:51:55;102960.41;;;1.53;60.37
20656;BME280;10487;53.320;8.672;2023-02-04T02:54:56;102965.66;;;1.50;60.70
20656;BME280;10487;53.320;8.672;2023-02-04T02:57:58;102962.19;;;1.43;60.79
20656;BME280;10487;53.320;8.672;2023-02-04T03:01:02;102953.41;;;1.38;60.85
20656;BME280;10487;53.320;8.672;2023-02-04T03:04:04;102961.31;;;1.31;60.57
20656;BME280;10487;53.320;8.672;2023-02-04T03:07:06;102965.69;;;1.23;60.84
20656;BME280;10487;53.320;8.672;2023-02-04T03:10:08;102969.19;;;1.16;60.59
20656;BME280;10487;53.320;8.672;2023-02-04T03:13:12;102975.34;;;1.09;60.64
20656;BME280;10487;53.320;8.672;2023-02-04T03:16:14;102968.31;;;0.99;60.96
20656;BME280;10487;53.320;8.672;2023-02-04T03:19:16;102961.28;;;0.88;60.98
20656;BME280;10487;53.320;8.672;2023-02-04T03:22:18;102973.53;;;0.80;60.75
20656;BME280;10487;53.320;8.672;2023-02-04T03:25:20;102980.53;;;0.75;61.02
20656;BME280;10487;53.320;8.672;2023-02-04T03:28:24;102986.66;;;0.73;61.26
20656;BME280;10487;53.320;8.672;2023-02-04T03:31:26;102998.91;;;0.74;60.84
20656;BME280;10487;53.320;8.672;2023-02-04T03:34:28;102999.78;;;0.74;61.09
20656;BME280;10487;53.320;8.672;2023-02-04T03:37:30;103005.94;;;0.75;61.13
20656;BME280;10487;53.320;8.672;2023-02-04T03:40:31;103011.16;;;0.73;60.92
20656;BME280;10487;53.320;8.672;2023-02-04T03:43:33;103023.44;;;0.71;60.60
20656;BME280;10487;53.320;8.672;2023-02-04T03:46:35;103025.19;;;0.68;60.64
20656;BME280;10487;53.320;8.672;2023-02-04T03:49:37;103036.53;;;0.64;60.86
20656;BME280;10487;53.320;8.672;2023-02-04T03:52:38;103046.19;;;0.60;60.80
20656;BME280;10487;53.320;8.672;2023-02-04T03:55:40;103050.53;;;0.55;60.88
20656;BME280;10487;53.320;8.672;2023-02-04T03:58:41;103040.88;;;0.47;60.84
20656;BME280;10487;53.320;8.672;2023-02-04T04:01:43;103056.59;;;0.42;60.69
20656;BME280;10487;53.320;8.672;2023-02-04T04:04:45;103054.81;;;0.37;60.77
20656;BME280;10487;53.320;8.672;2023-02-04T04:07:46;103053.94;;;0.30;60.95
20656;BME280;10487;53.320;8.672;2023-02-04T04:10:48;103062.63;;;0.26;60.73
20656;BME280;10487;53.320;8.672;2023-02-04T04:13:49;103069.63;;;0.24;60.89
20656;BME280;10487;53.320;8.672;2023-02-04T04:16:52;103078.38;;;0.21;61.23
20656;BME280;10487;53.320;8.672;2023-02-04T04:19:53;103088.00;;;0.18;60.94
20656;BME280;10487;53.320;8.672;2023-02-04T04:22:55;103096.75;;;0.15;60.64
20656;BME280;10487;53.320;8.672;2023-02-04T04:25:56;103115.09;;;0.11;60.71
20656;BME280;10487;53.320;8.672;2023-02-04T04:28:58;103112.41;;;0.03;60.70
20656;BME280;10487;53.320;8.672;2023-02-04T04:32:00;103123.78;;;0.01;60.86
20656;BME280;10487;53.320;8.672;2023-02-04T04:35:02;103128.09;;;-0.04;60.68
20656;BME280;10487;53.320;8.672;2023-02-04T04:38:03;103128.97;;;-0.07;60.66
20656;BME280;10487;53.320;8.672;2023-02-04T04:41:05;103130.66;;;-0.12;60.86
20656;BME280;10487;53.320;8.672;2023-02-04T04:44:07;103138.50;;;-0.15;60.77
20656;BME280;10487;53.320;8.672;2023-02-04T04:47:08;103134.97;;;-0.20;60.59
20656;BME280;10487;53.320;8.672;2023-02-04T04:50:10;103148.03;;;-0.26;60.92
20656;BME280;10487;53.320;8.672;2023-02-04T04:53:11;103162.00;;;-0.28;60.78
20656;BME280;10487;53.320;8.672;2023-02-04T04:56:13;103154.97;;;-0.31;60.63
20656;BME280;10487;53.320;8.672;2023-02-04T04:59:15;103153.19;;;-0.35;60.82
20656;BME280;10487;53.320;8.672;2023-02-04T05:02:16;103161.91;;;-0.39;61.11
20656;BME280;10487;53.320;8.672;2023-02-04T05:05:18;103171.50;;;-0.41;60.98
20656;BME280;10487;53.320;8.672;2023-02-04T05:08:20;103177.59;;;-0.44;60.88
20656;BME280;10487;53.320;8.672;2023-02-04T05:11:21;103184.56;;;-0.46;60.96
20656;BME280;10487;53.320;8.672;2023-02-04T05:14:23;103189.81;;;-0.49;60.72
20656;BME280;10487;53.320;8.672;2023-02-04T05:17:25;103183.63;;;-0.51;60.89
20656;BME280;10487;53.320;8.672;2023-02-04T05:20:28;103188.00;;;-0.53;60.78
20656;BME280;10487;53.320;8.672;2023-02-04T05:23:31;103185.38;;;-0.54;60.77
20656;BME280;10487;53.320;8.672;2023-02-04T05:26:33;103194.97;;;-0.55;60.45
20656;BME280;10487;53.320;8.672;2023-02-04T05:29:34;103197.59;;;-0.56;60.79
20656;BME280;10487;53.320;8.672;2023-02-04T05:32:38;103194.94;;;-0.58;60.84
20656;BME280;10487;53.320;8.672;2023-02-04T05:35:40;103196.66;;;-0.60;60.87
20656;BME280;10487;53.320;8.672;2023-02-04T05:38:44;103187.03;;;-0.62;60.83
20656;BME280;10487;53.320;8.672;2023-02-04T05:41:46;103180.88;;;-0.64;60.83
20656;BME280;10487;53.320;8.672;2023-02-04T05:44:47;103186.09;;;-0.69;61.01
20656;BME280;10487;53.320;8.672;2023-02-04T05:47:49;103204.66;;;-0.48;60.88
20656;BME280;10487;53.320;8.672;2023-02-04T05:50:50;103218.63;;;-0.50;60.91
20656;BME280;10487;53.320;8.672;2023-02-04T05:53:52;103227.38;;;-0.51;60.67
20656;BME280;10487;53.320;8.672;2023-02-04T05:56:54;103230.81;;;-0.55;60.76
20656;BME280;10487;53.320;8.672;2023-02-04T05:59:55;103220.25;;;-0.61;60.74
20656;BME280;10487;53.320;8.672;2023-02-04T06:02:57;103237.69;;;-0.65;60.57
20656;BME280;10487;53.320;8.672;2023-02-04T06:05:58;103237.66;;;-0.69;60.82
20656;BME280;10487;53.320;8.672;2023-02-04T06:09:00;103239.34;;;-0.73;60.73
20656;BME280;10487;53.320;8.672;2023-02-04T06:12:02;103257.69;;;-0.74;60.74
20656;BME280;10487;53.320;8.672;2023-02-04T06:15:05;103260.25;;;-0.79;60.62
20656;BME280;10487;53.320;8.672;2023-02-04T06:18:06;103261.09;;;-0.81;60.86
20656;BME280;10487;53.320;8.672;2023-02-04T06:21:08;103269.84;;;-0.81;60.80
20656;BME280;10487;53.320;8.672;2023-02-04T06:24:10;103273.31;;;-0.82;60.93
20656;BME280;10487;53.320;8.672;2023-02-04T06:27:11;103267.19;;;-0.82;60.59
20656;BME280;10487;53.320;8.672;2023-02-04T06:30:14;103265.44;;;-0.83;60.46
20656;BME280;10487;53.320;8.672;2023-02-04T06:33:15;103258.44;;;-0.84;60.65
20656;BME280;10487;53.320;8.672;2023-02-04T06:36:17;103271.50;;;-0.87;60.49
20656;BME280;10487;53.320;8.672;2023-02-04T06:39:19;103278.44;;;-0.91;60.44
20656;BME280;10487;53.320;8.672;2023-02-04T06:42:21;103288.84;;;-0.95;60.39
20656;BME280;10487;53.320;8.672;2023-02-04T06:45:23;103293.13;;;-1.02;60.60
20656;BME280;10487;53.320;8.672;2023-02-04T06:48:24;103300.97;;;-1.03;60.80
20656;BME280;10487;53.320;8.672;2023-02-04T06:51:26;103316.09;;;-0.84;60.69
20656;BME280;10487;53.320;8.672;2023-02-04T06:54:28;103316.09;;;-0.84;60.59
20656;BME280;10487;53.320;8.672;2023-02-04T06:57:29;103321.34;;;-0.83;60.42
20656;BME280;10487;53.320;8.672;2023-02-04T07:00:31;103330.06;;;-0.85;60.44
20656;BME280;10487;53.320;8.672;2023-02-04T07:03:33;103333.53;;;-0.88;60.25
20656;BME280;10487;53.320;8.672;2023-02-04T07:06:35;103333.47;;;-0.92;60.42
20656;BME280;10487;53.320;8.672;2023-02-04T07:09:36;103331.63;;;-0.99;60.43
20656;BME280;10487;53.320;8.672;2023-02-04T07:12:38;103330.66;;;-1.06;60.45
20656;BME280;10487;53.320;8.672;2023-02-04T07:15:40;103332.28;;;-1.13;60.57
20656;BME280;10487;53.320;8.672;2023-02-04T07:18:41;103334.81;;;-1.19;60.54
20656;BME280;10487;53.320;8.672;2023-02-04T07:21:43;103340.84;;;-1.24;60.62
20656;BME280;10487;53.320;8.672;2023-02-04T07:24:44;103345.13;;;-1.29;60.92
20656;BME280;10487;53.320;8.672;2023-02-04T07:27:46;103355.59;;;-1.29;61.00
20656;BME280;10487;53.320;8.672;2023-02-04T07:30:50;103360.84;;;-1.28;60.77
20656;BME280;10487;53.320;8.672;2023-02-04T07:33:52;103364.41;;;-1.26;60.91
20656;BME280;10487;53.320;8.672;2023-02-04T07:36:54;103360.03;;;-1.25;60.87
20656;BME280;10487;53.320;8.672;2023-02-04T07:39:55;103353.94;;;-1.23;60.75
20656;BME280;10487;53.320;8.672;2023-02-04T07:42:57;103367.88;;;-1.25;60.80
20656;BME280;10487;53.320;8.672;2023-02-04T07:45:59;103368.72;;;-1.28;60.97
20656;BME280;10487;53.320;8.672;2023-02-04T07:49:00;103380.31;;;-1.14;61.48
20656;BME280;10487;53.320;8.672;2023-02-04T07:52:02;103378.69;;;-1.06;61.15
20656;BME280;10487;53.320;8.672;2023-02-04T07:55:05;103377.91;;;-1.01;61.08
20656;BME280;10487;53.320;8.672;2023-02-04T07:58:06;103379.75;;;-0.96;61.15
20656;BME280;10487;53.320;8.672;2023-02-04T08:01:08;103388.56;;;-0.88;61.15
20656;BME280;10487;53.320;8.672;2023-02-04T08:04:10;103391.38;;;-0.77;61.03
20656;BME280;10487;53.320;8.672;2023-02-04T08:07:11;103399.44;;;-0.64;60.99
20656;BME280;10487;53.320;8.672;2023-02-04T08:10:13;103394.34;;;-0.53;60.97
20656;BME280;10487;53.320;8.672;2023-02-04T08:13:15;103397.09;;;-0.44;60.74
20656;BME280;10487;53.320;8.672;2023-02-04T08:16:16;103411.19;;;-0.36;60.86
20656;BME280;10487;53.320;8.672;2023-02-04T08:19:18;103408.59;;;-0.34;60.87
20656;BME280;10487;53.320;8.672;2023-02-04T08:22:21;103413.84;;;-0.34;60.85
20656;BME280;10487;53.320;8.672;2023-02-04T08:25:23;103419.16;;;-0.30;60.79
20656;BME280;10487;53.320;8.672;2023-02-04T08:28:24;103426.19;;;-0.27;60.89
20656;BME280;10487;53.320;8.672;2023-02-04T08:31:26;103426.28;;;-0.18;60.90
20656;BME280;10487;53.320;8.672;2023-02-04T08:34:28;103428.06;;;-0.17;61.06
20656;BME280;10487;53.320;8.672;2023-02-04T08:37:30;103435.94;;;-0.16;60.97
20656;BME280;10487;53.320;8.672;2023-02-04T08:40:31;103436.78;;;-0.18;60.85
20656;BME280;10487;53.320;8.672;2023-02-04T08:43:33;103446.44;;;-0.19;61.16
20656;BME280;10487;53.320;8.672;2023-02-04T08:46:35;103447.34;;;-0.15;61.09
20656;BME280;10487;53.320;8.672;2023-02-04T08:49:37;103473.69;;;-0.09;61.20
20656;BME280;10487;53.320;8.672;2023-02-04T08:52:38;103474.63;;;-0.03;60.93
20656;BME280;10487;53.320;8.672;2023-02-04T08:55:40;103472.09;;;0.03;61.12
20656;BME280;10487;53.320;8.672;2023-02-04T08:58:42;103477.38;;;0.05;60.96
20656;BME280;10487;53.320;8.672;2023-02-04T09:01:44;103480.00;;;0.06;60.90
20656;BME280;10487;53.320;8.672;2023-02-04T09:04:51;103491.44;;;0.08;61.04
20656;BME280;10487;53.320;8.672;2023-02-04T09:07:53;103492.31;;;0.10;60.88
20656;BME280;10487;53.320;8.672;2023-02-04T09:10:54;103490.59;;;0.12;60.68
20656;BME280;10487;53.320;8.672;2023-02-04T09:13:58;103498.47;;;0.14;61.27
20656;BME280;10487;53.320;8.672;2023-02-04T09:17:00;103498.53;;;0.17;61.00
20656;BME280;10487;53.320;8.672;2023-02-04T09:20:02;103497.69;;;0.21;61.01
20656;BME280;10487;53.320;8.672;2023-02-04T09:23:06;103498.63;;;0.26;61.10
20656;BME280;10487;53.320;8.672;2023-02-04T09:26:10;103504.81;;;0.31;60.77
20656;BME280;10487;53.320;8.672;2023-02-04T09:29:13;103504.00;;;0.35;60.98
20656;BME280;10487;53.320;8.672;2023-02-04T09:32:14;103507.53;;;0.36;60.87
20656;BME280;10487;53.320;8.672;2023-02-04T09:35:16;103496.13;;;0.35;61.25
20656;BME280;10487;53.320;8.672;2023-02-04T09:38:17;103492.66;;;0.39;61.06
20656;BME280;10487;53.320;8.672;2023-02-04T09:41:19;103505.00;;;0.43;61.19
20656;BME280;10487;53.320;8.672;2023-02-04T09:44:23;103496.28;;;0.47;60.89
20656;BME280;10487;53.320;8.672;2023-02-04T09:47:26;103489.38;;;0.55;61.20
20656;BME280;10487;53.320;8.672;2023-02-04T09:50:29;103492.09;;;0.66;61.21
20656;BME280;10487;53.320;8.672;2023-02-04T09:53:34;103502.75;;;0.79;61.21
20656;BME280;10487;53.320;8.672;2023-02-04T09:56:36;103513.38;;;0.88;61.00
20656;BME280;10487;53.320;8.672;2023-02-04T09:59:39;103521.31;;;0.93;60.63
20656;BME280;10487;53.320;8.672;2023-02-04T10:02:40;103526.63;;;0.95;61.03
20656;BME280;10487;53.320;8.672;2023-02-04T10:05:43;103530.09;;;0.94;60.85
20656;BME280;10487;53.320;8.672;2023-02-04T10:08:48;103533.63;;;0.94;61.07
20656;BME280;10487;53.320;8.672;2023-02-04T10:11:50;103535.44;;;1.01;61.13
20656;BME280;10487;53.320;8.672;2023-02-04T10:14:52;103538.16;;;1.10;60.85
20656;BME280;10487;53.320;8.672;2023-02-04T10:17:57;103546.13;;;1.21;61.04
20656;BME280;10487;53.320;8.672;2023-02-04T10:21:17;103539.22;;;1.30;60.89
20656;BME280;10487;53.320;8.672;2023-02-04T10:24:22;103537.53;;;1.38;61.07
20656;BME280;10487;53.320;8.672;2023-02-04T10:27:27;103551.63;;;1.46;60.60
20656;BME280;10487;53.320;8.672;2023-02-04T10:30:31;103549.06;;;1.54;60.63
20656;BME280;10487;53.320;8.672;2023-02-04T10:33:38;103552.66;;;1.64;60.53
20656;BME280;10487;53.320;8.672;2023-02-04T10:36:45;103553.59;;;1.72;60.43
20656;BME280;10487;53.320;8.672;2023-02-04T10:39:48;103545.78;;;1.84;60.66
20656;BME280;10487;53.320;8.672;2023-02-04T10:42:50;103550.22;;;1.95;60.70
20656;BME280;10487;53.320;8.672;2023-02-04T10:46:03;103549.41;;;2.05;60.39
20656;BME280;10487;53.320;8.672;2023-02-04T10:49:18;103554.75;;;2.16;60.39
20656;BME280;10487;53.320;8.672;2023-02-04T10:52:23;103547.78;;;2.26;60.35
20656;BME280;10487;53.320;8.672;2023-02-04T10:55:27;103543.41;;;2.26;60.33
20656;BME280;10487;53.320;8.672;2023-02-04T10:58:29;103539.91;;;2.29;60.41
20656;BME280;10487;53.320;8.672;2023-02-04T11:01:31;103546.94;;;2.34;60.68
20656;BME280;10487;53.320;8.672;2023-02-04T11:04:33;103543.44;;;2.40;60.46
20656;BME280;10487;53.320;8.672;2023-02-04T11:07:35;103552.22;;;2.37;60.19
20656;BME280;10487;53.320;8.672;2023-02-04T11:10:36;103546.09;;;2.38;60.63
20656;BME280;10487;53.320;8.672;2023-02-04T11:13:55;103550.47;;;2.42;60.37
20656;BME280;10487;53.320;8.672;2023-02-04T11:17:00;103551.38;;;2.52;60.69
20656;BME280;10487;53.320;8.672;2023-02-04T11:20:15;103556.69;;;2.58;60.38
20656;BME280;10487;53.320;8.672;2023-02-04T11:26:45;103554.13;;;2.77;60.37
20656;BME280;10487;53.320;8.672;2023-02-04T11:29:48;103546.25;;;2.83;60.35
20656;BME280;10487;53.320;8.672;2023-02-04T11:33:04;103548.88;;;2.87;60.23
20656;BME280;10487;53.320;8.672;2023-02-04T11:36:11;103548.88;;;2.88;60.27
20656;BME280;10487;53.320;8.672;2023-02-04T11:39:15;103541.84;;;2.90;60.14
20656;BME280;10487;53.320;8.672;2023-02-04T11:42:21;103544.50;;;2.93;60.17
20656;BME280;10487;53.320;8.672;2023-02-04T11:45:27;103540.13;;;2.98;60.42
20656;BME280;10487;53.320;8.672;2023-02-04T11:48:30;103549.81;;;3.10;60.25
20656;BME280;10487;53.320;8.672;2023-02-04T11:51:33;103553.38;;;3.27;60.37
20656;BME280;10487;53.320;8.672;2023-02-04T11:54:35;103556.03;;;3.36;59.96
20656;BME280;10487;53.320;8.672;2023-02-04T11:57:39;103544.59;;;3.37;59.96
20656;BME280;10487;53.320;8.672;2023-02-04T12:00:41;103552.50;;;3.40;60.01
20656;BME280;10487;53.320;8.672;2023-02-04T12:03:47;103555.13;;;3.46;59.92
20656;BME280;10487;53.320;8.672;2023-02-04T12:06:58;103551.63;;;3.53;60.16
20656;BME280;10487;53.320;8.672;2023-02-04T12:13:22;103553.38;;;3.74;60.04
20656;BME280;10487;53.320;8.672;2023-02-04T12:16:24;103559.53;;;3.76;60.04
20656;BME280;10487;53.320;8.672;2023-02-04T12:19:27;103558.66;;;3.77;59.97
20656;BME280;10487;53.320;8.672;2023-02-04T12:22:28;103559.53;;;3.73;59.80
20656;BME280;10487;53.320;8.672;2023-02-04T12:25:30;103562.19;;;3.65;59.67
20656;BME280;10487;53.320;8.672;2023-02-04T12:28:33;103560.44;;;3.58;59.88
20656;BME280;10487;53.320;8.672;2023-02-04T12:31:35;103560.44;;;3.52;59.99
20656;BME280;10487;53.320;8.672;2023-02-04T12:34:36;103559.53;;;3.56;60.07
20656;BME280;10487;53.320;8.672;2023-02-04T12:37:38;103559.53;;;3.59;60.05
20656;BME280;10487;53.320;8.672;2023-02-04T12:40:40;103564.84;;;3.68;59.95
20656;BME280;10487;53.320;8.672;2023-02-04T12:43:41;103567.47;;;3.74;59.85
20656;BME280;10487;53.320;8.672;2023-02-04T12:46:43;103567.44;;;3.79;59.94
20656;BME280;10487;53.320;8.672;2023-02-04T12:49:44;103560.41;;;3.78;59.82
20656;BME280;10487;53.320;8.672;2023-02-04T12:52:54;103564.81;;;3.74;60.16
20656;BME280;10487;53.320;8.672;2023-02-04T12:55:56;103561.28;;;3.69;59.82
20656;BME280;10487;53.320;8.672;2023-02-04T12:58:58;103561.28;;;3.66;59.99
20656;BME280;10487;53.320;8.672;2023-02-04T13:01:59;103570.13;;;3.65;59.82
20656;BME280;10487;53.320;8.672;2023-02-04T13:05:01;103565.72;;;3.58;59.61
20656;BME280;10487;53.320;8.672;2023-02-04T13:08:03;103571.88;;;3.53;59.70
20656;BME280;10487;53.320;8.672;2023-02-04T13:11:05;103572.75;;;3.52;59.70
20656;BME280;10487;53.320;8.672;2023-02-04T13:14:06;103571.00;;;3.52;59.89
20656;BME280;10487;53.320;8.672;2023-02-04T13:17:08;103576.28;;;3.52;59.79
20656;BME280;10487;53.320;8.672;2023-02-04T13:20:11;103591.25;;;3.50;59.73
20656;BME280;10487;53.320;8.672;2023-02-04T13:23:13;103584.19;;;3.48;59.79
20656;BME280;10487;53.320;8.672;2023-02-04T13:26:14;103587.72;;;3.50;59.70
20656;BME280;10487;53.320;8.672;2023-02-04T13:29:16;103586.81;;;3.46;59.78
20656;BME280;10487;53.320;8.672;2023-02-04T13:32:18;103581.53;;;3.41;59.67
20656;BME280;10487;53.320;8.672;2023-02-04T13:35:19;103564.81;;;3.36;59.67
20656;BME280;10487;53.320;8.672;2023-02-04T13:38:21;103570.09;;;3.32;59.78
20656;BME280;10487;53.320;8.672;2023-02-04T13:41:23;103581.53;;;3.29;59.88
20656;BME280;10487;53.320;8.672;2023-02-04T13:44:25;103578.88;;;3.29;59.84
20656;BME280;10487;53.320;8.672;2023-02-04T13:47:26;103564.81;;;3.29;59.65
20656;BME280;10487;53.320;8.672;2023-02-04T13:50:28;103564.81;;;3.29;59.63
20656;BME280;10487;53.320;8.672;2023-02-04T13:53:30;103589.47;;;3.28;59.52
20656;BME280;10487;53.320;8.672;2023-02-04T13:56:32;103578.91;;;3.28;59.63
20656;BME280;10487;53.320;8.672;2023-02-04T13:59:33;103582.41;;;3.30;59.76
20656;BME280;10487;53.320;8.672;2023-02-04T14:02:35;103583.28;;;3.32;59.78
20656;BME280;10487;53.320;8.672;2023-02-04T14:05:36;103588.56;;;3.36;59.75
20656;BME280;10487;53.320;8.672;2023-02-04T14:08:38;103585.94;;;3.41;59.69
20656;BME280;10487;53.320;8.672;2023-02-04T14:11:40;103585.94;;;3.48;59.66
20656;BME280;10487;53.320;8.672;2023-02-04T14:14:41;103593.84;;;3.56;59.62
20656;BME280;10487;53.320;8.672;2023-02-04T14:17:43;103584.19;;;3.55;59.42
20656;BME280;10487;53.320;8.672;2023-02-04T14:20:45;103594.75;;;3.52;59.62
20656;BME280;10487;53.320;8.672;2023-02-04T14:23:46;103596.50;;;3.47;59.68
20656;BME280;10487;53.320;8.672;2023-02-04T14:26:48;103595.63;;;3.40;59.58
20656;BME280;10487;53.320;8.672;2023-02-04T14:29:51;103600.00;;;3.34;59.69
20656;BME280;10487;53.320;8.672;2023-02-04T14:32:53;103596.47;;;3.29;59.49
20656;BME280;10487;53.320;8.672;2023-02-04T14:35:55;103590.31;;;3.25;59.56
20656;BME280;10487;53.320;8.672;2023-02-04T14:38:56;103585.91;;;3.23;59.47
20656;BME280;10487;53.320;8.672;2023-02-04T14:41:58;103588.53;;;3.20;59.49
20656;BME280;10487;53.320;8.672;2023-02-04T14:45:00;103600.81;;;3.16;59.57
20656;BME280;10487;53.320;8.672;2023-02-04T14:48:06;103595.56;;;3.13;59.53
20656;BME280;10487;53.320;8.672;2023-02-04T14:51:08;103596.44;;;3.06;59.45
20656;BME280;10487;53.320;8.672;2023-02-04T14:54:10;103595.53;;;3.03;59.52
20656;BME280;10487;53.320;8.672;2023-02-04T14:57:11;103592.88;;;3.00;59.53
20656;BME280;10487;53.320;8.672;2023-02-04T15:00:14;103601.66;;;2.96;59.61
20656;BME280;10487;53.320;8.672;2023-02-04T15:03:16;103599.88;;;2.92;59.74
20656;BME280;10487;53.320;8.672;2023-02-04T15:06:18;103598.97;;;2.87;59.47
20656;BME280;10487;53.320;8.672;2023-02-04T15:09:20;103599.84;;;2.84;59.43
20656;BME280;10487;53.320;8.672;2023-02-04T15:12:21;103602.50;;;2.82;59.81
20656;BME280;10487;53.320;8.672;2023-02-04T15:15:23;103600.75;;;2.84;59.83
20656;BME280;10487;53.320;8.672;2023-02-04T15:18:24;103604.28;;;2.83;59.60
20656;BME280;10487;53.320;8.672;2023-02-04T15:21:26;103604.25;;;2.82;59.51
20656;BME280;10487;53.320;8.672;2023-02-04T15:24:28;103609.50;;;2.77;59.37
20656;BME280;10487;53.320;8.672;2023-02-04T15:27:30;103596.31;;;2.73;59.72
20656;BME280;10487;53.320;8.672;2023-02-04T15:30:32;103599.81;;;2.70;59.70
20656;BME280;10487;53.320;8.672;2023-02-04T15:33:34;103602.44;;;2.67;59.73
20656;BME280;10487;53.320;8.672;2023-02-04T15:36:36;103604.19;;;2.64;59.40
20656;BME280;10487;53.320;8.672;2023-02-04T15:39:38;103605.94;;;2.60;59.89
20656;BME280;10487;53.320;8.672;2023-02-04T15:42:40;103612.94;;;2.57;59.78
20656;BME280;10487;53.320;8.672;2023-02-04T15:45:43;103608.53;;;2.54;59.58
20656;BME280;10487;53.320;8.672;2023-02-04T15:48:45;103612.03;;;2.52;59.63
20656;BME280;10487;53.320;8.672;2023-02-04T15:51:46;103603.22;;;2.50;59.87
20656;BME280;10487;53.320;8.672;2023-02-04T15:54:48;103604.13;;;2.50;59.60
20656;BME280;10487;53.320;8.672;2023-02-04T15:57:49;103605.88;;;2.48;59.65
20656;BME280;10487;53.320;8.672;2023-02-04T16:00:51;103602.34;;;2.48;59.84
20656;BME280;10487;53.320;8.672;2023-02-04T16:03:53;103596.19;;;2.47;59.61
20656;BME280;10487;53.320;8.672;2023-02-04T16:06:56;103596.19;;;2.47;59.74
20656;BME280;10487;53.320;8.672;2023-02-04T16:09:59;103599.72;;;2.46;59.80